sensor_id;sensor_type;location;lat;lon;timestamp;pressure;altitude;pressure_sealevel;temperature;humidity
65716;BME280;63484;52.054;8.518;2023-04-01T00:00:41;98472.81;;;9.99;100.00
65716;BME280;63484;52.054;8.518;2023-04-01T00:05:43;98468.25;;;10.01;100.00
65716;BME280;63484;52.054;8.518;2023-04-01T00:10:48;98478.63;;;9.93;100.00
65716;BME280;63484;52.054;8.518;2023-04-01T00:15:50;98471.59;;;9.94;100.00
65716;BME280;63484;52.054;8.518;2023-04-01T00:20:52;98472.00;;;9.89;100.00
65716;BME280;63484;52.054;8.518;2023-04-01T00:25:55;98473.69;;;9.90;100.00
65716;BME280;63484;52.054;8.518;2023-04-01T00:30:57;98473.69;;;9.90;100.00
65716;BME280;63484;52.054;8.518;2023-04-01T00:36:06;98470.06;;;9.91;100.00
65716;BME280;63484;52.054;8.518;2023-04-01T00:41:12;98466.91;;;9.88;100.00
65716;BME280;63484;52.054;8.518;2023-04-01T00:46:15;98467.03;;;9.86;100.00
65716;BME280;63484;52.054;8.518;2023-04-01T00:51:19;98464.13;;;9.89;100.00
65716;BME280;63484;52.054;8.518;2023-04-01T00:56:26;98463.72;;;9.84;100.00
65716;BME280;63484;52.054;8.518;2023-04-01T01:01:29;98462.38;;;9.80;100.00
65716;BME280;63484;52.054;8.518;2023-04-01T01:06:39;98465.56;;;9.74;100.00
65716;BME280;63484;52.054;8.518;2023-04-01T01:11:50;98456.28;;;9.79;100.00
65716;BME280;63484;52.054;8.518;2023-04-01T01:16:58;98463.22;;;9.80;100.00
65716;BME280;63484;52.054;8.518;2023-04-01T01:22:17;98455.19;;;9.82;100.00
65716;BME280;63484;52.054;8.518;2023-04-01T01:27:23;98448.81;;;9.84;100.00
65716;BME280;63484;52.054;8.518;2023-04-01T01:32:36;98450.59;;;9.84;99.83
65716;BME280;63484;52.054;8.518;2023-04-01T01:37:43;98461.09;;;9.84;98.93
65716;BME280;63484;52.054;8.518;2023-04-01T01:42:48;98454.63;;;9.88;98.90
65716;BME280;63484;52.054;8.518;2023-04-01T01:47:52;98442.47;;;9.87;98.93
65716;BME280;63484;52.054;8.518;2023-04-01T01:53:07;98443.81;;;9.91;97.39
65716;BME280;63484;52.054;8.518;2023-04-01T01:58:12;98451.09;;;9.97;97.20
65716;BME280;63484;52.054;8.518;2023-04-01T02:03:17;98448.22;;;9.91;97.93
65716;BME280;63484;52.054;8.518;2023-04-01T02:08:25;98451.28;;;9.86;97.20
65716;BME280;63484;52.054;8.518;2023-04-01T02:13:31;98445.50;;;9.82;98.35
65716;BME280;63484;52.054;8.518;2023-04-01T02:18:37;98447.22;;;9.74;99.04
65716;BME280;63484;52.054;8.518;2023-04-01T02:23:41;98446.66;;;9.70;100.00
65716;BME280;63484;52.054;8.518;2023-04-01T02:28:45;98450.66;;;9.65;100.00
65716;BME280;63484;52.054;8.518;2023-04-01T02:33:48;98452.34;;;9.66;100.00
65716;BME280;63484;52.054;8.518;2023-04-01T02:38:52;98437.00;;;9.61;100.00
65716;BME280;63484;52.054;8.518;2023-04-01T02:43:56;98445.28;;;9.66;100.00
65716;BME280;63484;52.054;8.518;2023-04-01T02:48:58;98447.63;;;9.69;99.57
65716;BME280;63484;52.054;8.518;2023-04-01T02:54:02;98442.81;;;9.65;99.93
65716;BME280;63484;52.054;8.518;2023-04-01T02:59:04;98446.41;;;9.64;99.69
65716;BME280;63484;52.054;8.518;2023-04-01T03:04:06;98448.75;;;9.67;99.07
65716;BME280;63484;52.054;8.518;2023-04-01T03:09:09;98438.94;;;9.69;99.33
65716;BME280;63484;52.054;8.518;2023-04-01T03:14:11;98450.53;;;9.66;99.55
65716;BME280;63484;52.054;8.518;2023-04-01T03:19:13;98451.91;;;9.70;98.94
65716;BME280;63484;52.054;8.518;2023-04-01T03:24:19;98454.97;;;9.66;99.18
65716;BME280;63484;52.054;8.518;2023-04-01T03:29:21;98455.22;;;9.63;99.27
65716;BME280;63484;52.054;8.518;2023-04-01T03:34:25;98458.41;;;9.66;98.95
65716;BME280;63484;52.054;8.518;2023-04-01T03:39:29;98454.69;;;9.69;98.47
65716;BME280;63484;52.054;8.518;2023-04-01T03:44:32;98464.63;;;9.65;98.99
65716;BME280;63484;52.054;8.518;2023-04-01T03:49:34;98469.31;;;9.62;98.52
65716;BME280;63484;52.054;8.518;2023-04-01T03:54:38;98470.97;;;9.63;98.39
65716;BME280;63484;52.054;8.518;2023-04-01T03:59:40;98471.53;;;9.57;100.00
65716;BME280;63484;52.054;8.518;2023-04-01T04:04:42;98469.59;;;9.59;99.92
65716;BME280;63484;52.054;8.518;2023-04-01T04:09:45;98465.75;;;9.53;100.00
65716;BME280;63484;52.054;8.518;2023-04-01T04:14:48;98465.88;;;9.52;100.00
65716;BME280;63484;52.054;8.518;2023-04-01T04:19:49;98463.94;;;9.54;100.00
65716;BME280;63484;52.054;8.518;2023-04-01T04:24:53;98466.56;;;9.54;100.00
65716;BME280;63484;52.054;8.518;2023-04-01T04:29:54;98466.56;;;9.54;100.00
65716;BME280;63484;52.054;8.518;2023-04-01T04:34:56;98465.59;;;9.55;100.00
65716;BME280;63484;52.054;8.518;2023-04-01T04:39:59;98462.28;;;9.62;99.66
65716;BME280;63484;52.054;8.518;2023-04-01T04:45:02;98472.94;;;9.61;99.35
65716;BME280;63484;52.054;8.518;2023-04-01T04:50:07;98483.56;;;9.59;99.28
65716;BME280;63484;52.054;8.518;2023-04-01T04:55:12;98487.56;;;9.54;100.00
65716;BME280;63484;52.054;8.518;2023-04-01T05:00:18;98488.41;;;9.54;99.90
65716;BME280;63484;52.054;8.518;2023-04-01T05:05:33;98492.53;;;9.47;100.00
65716;BME280;63484;52.054;8.518;2023-04-01T05:10:37;98492.69;;;9.46;100.00
65716;BME280;63484;52.054;8.518;2023-04-01T05:15:39;98493.09;;;9.51;100.00
65716;BME280;63484;52.054;8.518;2023-04-01T05:20:46;98504.16;;;9.45;100.00
65716;BME280;63484;52.054;8.518;2023-04-01T05:25:50;98503.44;;;9.43;100.00
65716;BME280;63484;52.054;8.518;2023-04-01T05:30:53;98504.00;;;9.46;100.00
65716;BME280;63484;52.054;8.518;2023-04-01T05:36:05;98504.53;;;9.50;100.00
65716;BME280;63484;52.054;8.518;2023-04-01T05:41:08;98506.34;;;9.49;100.00
65716;BME280;63484;52.054;8.518;2023-04-01T05:46:14;98510.47;;;9.52;100.00
65716;BME280;63484;52.054;8.518;2023-04-01T05:51:24;98510.75;;;9.49;100.00
65716;BME280;63484;52.054;8.518;2023-04-01T05:56:27;98510.63;;;9.50;100.00
65716;BME280;63484;52.054;8.518;2023-04-01T06:01:29;98511.88;;;9.56;100.00
65716;BME280;63484;52.054;8.518;2023-04-01T06:06:32;98520.44;;;9.58;99.72
65716;BME280;63484;52.054;8.518;2023-04-01T06:11:55;98527.88;;;9.62;99.41
65716;BME280;63484;52.054;8.518;2023-04-01T06:17:08;98532.81;;;9.75;99.10
65716;BME280;63484;52.054;8.518;2023-04-01T06:22:44;98538.47;;;9.80;97.91
65716;BME280;63484;52.054;8.518;2023-04-01T06:28:02;98543.66;;;9.99;97.68
65716;BME280;63484;52.054;8.518;2023-04-01T06:33:27;98538.00;;;10.13;96.17
65716;BME280;63484;52.054;8.518;2023-04-01T06:38:53;98542.22;;;10.33;94.74
65716;BME280;63484;52.054;8.518;2023-04-01T06:44:11;98550.00;;;10.52;94.89
65716;BME280;63484;52.054;8.518;2023-04-01T06:49:46;98558.38;;;10.38;94.73
65716;BME280;63484;52.054;8.518;2023-04-01T06:55:21;98552.31;;;10.28;95.00
65716;BME280;63484;52.054;8.518;2023-04-01T07:00:46;98562.84;;;10.19;95.99
65716;BME280;63484;52.054;8.518;2023-04-01T07:05:51;98569.94;;;10.09;96.05
65716;BME280;63484;52.054;8.518;2023-04-01T07:10:57;98576.16;;;9.98;97.49
65716;BME280;63484;52.054;8.518;2023-04-01T07:16:34;98579.31;;;9.92;98.51
65716;BME280;63484;52.054;8.518;2023-04-01T07:21:41;98587.47;;;9.89;99.75
65716;BME280;63484;52.054;8.518;2023-04-01T07:26:56;98596.03;;;9.91;99.79
65716;BME280;63484;52.054;8.518;2023-04-01T07:32:23;98595.06;;;9.92;99.08
65716;BME280;63484;52.054;8.518;2023-04-01T07:37:36;98592.59;;;10.00;99.55
65716;BME280;63484;52.054;8.518;2023-04-01T07:42:51;98595.22;;;10.10;98.50
65716;BME280;63484;52.054;8.518;2023-04-01T07:48:08;98588.97;;;10.20;98.54
65716;BME280;63484;52.054;8.518;2023-04-01T07:53:16;98609.25;;;10.37;97.57
65716;BME280;63484;52.054;8.518;2023-04-01T07:58:29;98609.28;;;10.64;96.77
65716;BME280;63484;52.054;8.518;2023-04-01T08:03:52;98611.50;;;10.96;94.41
65716;BME280;63484;52.054;8.518;2023-04-01T08:09:02;98621.59;;;11.00;94.76
65716;BME280;63484;52.054;8.518;2023-04-01T08:14:30;98625.81;;;11.11;94.78
65716;BME280;63484;52.054;8.518;2023-04-01T08:20:17;98638.13;;;11.10;94.04
65716;BME280;63484;52.054;8.518;2023-04-01T08:25:24;98647.78;;;11.19;93.91
65716;BME280;63484;52.054;8.518;2023-04-01T08:30:33;98649.75;;;11.35;93.28
65716;BME280;63484;52.054;8.518;2023-04-01T08:35:45;98648.09;;;11.79;92.02
65716;BME280;63484;52.054;8.518;2023-04-01T08:41:00;98659.81;;;12.02;90.84
65716;BME280;63484;52.054;8.518;2023-04-01T08:46:37;98659.56;;;12.30;88.72
65716;BME280;63484;52.054;8.518;2023-04-01T08:57:31;98662.56;;;12.35;86.97
65716;BME280;63484;52.054;8.518;2023-04-01T09:03:22;98665.63;;;12.48;89.11
65716;BME280;63484;52.054;8.518;2023-04-01T09:08:39;98672.09;;;12.54;88.92
65716;BME280;63484;52.054;8.518;2023-04-01T09:20:14;98666.81;;;13.05;86.59
65716;BME280;63484;52.054;8.518;2023-04-01T09:25:38;98675.13;;;13.26;84.06
65716;BME280;63484;52.054;8.518;2023-04-01T09:31:10;98686.50;;;13.68;82.89
65716;BME280;63484;52.054;8.518;2023-04-01T09:36:43;98703.03;;;13.78;82.00
65716;BME280;63484;52.054;8.518;2023-04-01T09:42:14;98700.22;;;13.80;78.26
65716;BME280;63484;52.054;8.518;2023-04-01T09:47:45;98711.06;;;13.61;82.30
65716;BME280;63484;52.054;8.518;2023-04-01T09:52:55;98708.53;;;13.43;83.27
65716;BME280;63484;52.054;8.518;2023-04-01T10:10:21;98718.13;;;12.85;87.66
65716;BME280;63484;52.054;8.518;2023-04-01T10:21:38;98728.84;;;12.66;89.90
65716;BME280;63484;52.054;8.518;2023-04-01T10:27:08;98734.94;;;12.92;86.49
65716;BME280;63484;52.054;8.518;2023-04-01T10:38:26;98731.59;;;13.83;81.82
65716;BME280;63484;52.054;8.518;2023-04-01T10:44:11;98727.56;;;14.29;80.94
65716;BME280;63484;52.054;8.518;2023-04-01T10:49:40;98731.34;;;14.18;79.87
65716;BME280;63484;52.054;8.518;2023-04-01T10:54:58;98737.66;;;13.67;82.89
65716;BME280;63484;52.054;8.518;2023-04-01T11:00:55;98737.31;;;13.62;81.66
65716;BME280;63484;52.054;8.518;2023-04-01T11:06:49;98738.13;;;13.55;84.43
65716;BME280;63484;52.054;8.518;2023-04-01T11:18:02;98751.78;;;13.50;82.98
65716;BME280;63484;52.054;8.518;2023-04-01T11:23:31;98757.00;;;13.76;83.13
65716;BME280;63484;52.054;8.518;2023-04-01T11:34:26;98772.22;;;14.80;79.68
65716;BME280;63484;52.054;8.518;2023-04-01T11:39:38;98767.56;;;14.66;79.63
65716;BME280;63484;52.054;8.518;2023-04-01T11:45:13;98769.50;;;14.24;79.87
65716;BME280;63484;52.054;8.518;2023-04-01T11:50:27;98777.25;;;14.17;81.47
65716;BME280;63484;52.054;8.518;2023-04-01T11:55:41;98779.03;;;14.01;81.18
65716;BME280;63484;52.054;8.518;2023-04-01T12:06:19;98792.16;;;13.76;83.13
65716;BME280;63484;52.054;8.518;2023-04-01T12:11:29;98800.47;;;13.89;82.46
65716;BME280;63484;52.054;8.518;2023-04-01T12:16:43;98803.50;;;14.11;81.45
65716;BME280;63484;52.054;8.518;2023-04-01T12:22:03;98811.25;;;14.04;81.72
65716;BME280;63484;52.054;8.518;2023-04-01T12:32:56;98820.56;;;14.24;81.46
65716;BME280;63484;52.054;8.518;2023-04-01T12:38:16;98825.09;;;14.48;79.01
65716;BME280;63484;52.054;8.518;2023-04-01T12:49:48;98838.66;;;14.61;77.11
65716;BME280;63484;52.054;8.518;2023-04-01T13:00:57;98844.63;;;14.63;77.68
65716;BME280;63484;52.054;8.518;2023-04-01T13:06:19;98855.53;;;14.52;78.00
65716;BME280;63484;52.054;8.518;2023-04-01T13:11:30;98859.28;;;14.49;81.41
65716;BME280;63484;52.054;8.518;2023-04-01T13:16:38;98864.75;;;14.48;80.60
65716;BME280;63484;52.054;8.518;2023-04-01T13:21:49;98874.56;;;14.22;78.86
65716;BME280;63484;52.054;8.518;2023-04-01T13:26:59;98882.06;;;14.01;81.06
65716;BME280;63484;52.054;8.518;2023-04-01T13:32:15;98887.22;;;13.43;84.53
65716;BME280;63484;52.054;8.518;2023-04-01T13:37:37;98883.66;;;13.09;88.74
65716;BME280;63484;52.054;8.518;2023-04-01T13:42:47;98890.22;;;13.22;85.60
65716;BME280;63484;52.054;8.518;2023-04-01T13:53:55;98893.75;;;13.56;85.97
65716;BME280;63484;52.054;8.518;2023-04-01T13:59:29;98905.47;;;13.62;86.92
65716;BME280;63484;52.054;8.518;2023-04-01T14:04:49;98910.75;;;13.62;83.17
65716;BME280;63484;52.054;8.518;2023-04-01T14:10:05;98911.97;;;13.42;84.24
65716;BME280;63484;52.054;8.518;2023-04-01T14:15:29;98926.22;;;13.31;88.41
65716;BME280;63484;52.054;8.518;2023-04-01T14:20:38;98927.75;;;13.16;87.78
65716;BME280;63484;52.054;8.518;2023-04-01T14:26:12;98937.03;;;13.03;88.18
65716;BME280;63484;52.054;8.518;2023-04-01T14:31:41;98940.28;;;13.14;87.21
65716;BME280;63484;52.054;8.518;2023-04-01T14:36:56;98943.53;;;13.26;87.41
65716;BME280;63484;52.054;8.518;2023-04-01T14:47:47;98959.19;;;13.45;84.96
65716;BME280;63484;52.054;8.518;2023-04-01T14:52:57;98967.41;;;13.42;85.04
65716;BME280;63484;52.054;8.518;2023-04-01T14:58:09;98972.69;;;13.42;87.74
65716;BME280;63484;52.054;8.518;2023-04-01T15:03:18;98973.75;;;13.31;88.40
65716;BME280;63484;52.054;8.518;2023-04-01T15:08:26;98985.44;;;13.11;87.59
65716;BME280;63484;52.054;8.518;2023-04-01T15:19:03;99003.59;;;12.70;89.44
65716;BME280;63484;52.054;8.518;2023-04-01T15:24:16;99019.22;;;12.53;89.22
65716;BME280;63484;52.054;8.518;2023-04-01T15:29:32;99028.03;;;12.35;90.54
65716;BME280;63484;52.054;8.518;2023-04-01T15:34:47;99027.41;;;12.23;92.38
65716;BME280;63484;52.054;8.518;2023-04-01T15:39:55;99033.63;;;12.32;94.65
65716;BME280;63484;52.054;8.518;2023-04-01T15:45:10;99046.53;;;12.25;95.74
65716;BME280;63484;52.054;8.518;2023-04-01T15:50:33;99036.41;;;12.21;96.40
65716;BME280;63484;52.054;8.518;2023-04-01T15:55:42;99052.91;;;12.23;96.36
65716;BME280;63484;52.054;8.518;2023-04-01T16:00:53;99063.31;;;12.15;95.23
65716;BME280;63484;52.054;8.518;2023-04-01T16:06:21;99072.09;;;12.06;94.02
65716;BME280;63484;52.054;8.518;2023-04-01T16:11:33;99084.84;;;12.01;94.30
65716;BME280;63484;52.054;8.518;2023-04-01T16:16:53;99092.91;;;11.90;93.23
65716;BME280;63484;52.054;8.518;2023-04-01T16:22:06;99100.94;;;11.79;94.22
65716;BME280;63484;52.054;8.518;2023-04-01T16:27:14;99110.09;;;11.75;93.82
65716;BME280;63484;52.054;8.518;2023-04-01T16:32:27;99121.31;;;11.67;96.08
65716;BME280;63484;52.054;8.518;2023-04-01T16:37:34;99137.66;;;11.71;95.52
65716;BME280;63484;52.054;8.518;2023-04-01T16:42:48;99138.91;;;11.67;96.08
65716;BME280;63484;52.054;8.518;2023-04-01T16:47:56;99148.28;;;11.60;96.55
65716;BME280;63484;52.054;8.518;2023-04-01T16:53:01;99157.16;;;11.59;98.79
65716;BME280;63484;52.054;8.518;2023-04-01T16:58:07;99171.69;;;11.63;97.17
65716;BME280;63484;52.054;8.518;2023-04-01T17:03:16;99189.00;;;11.06;95.74
65716;BME280;63484;52.054;8.518;2023-04-01T17:08:30;99197.94;;;10.64;97.39
65716;BME280;63484;52.054;8.518;2023-04-01T17:13:40;99210.66;;;10.39;98.06
65716;BME280;63484;52.054;8.518;2023-04-01T17:18:56;99211.97;;;10.33;99.22
65716;BME280;63484;52.054;8.518;2023-04-01T17:24:08;99232.59;;;10.17;98.81
65716;BME280;63484;52.054;8.518;2023-04-01T17:29:22;99252.09;;;10.35;97.44
65716;BME280;63484;52.054;8.518;2023-04-01T17:34:38;99266.94;;;10.25;96.38
65716;BME280;63484;52.054;8.518;2023-04-01T17:39:55;99280.72;;;10.07;97.71
65716;BME280;63484;52.054;8.518;2023-04-01T17:45:05;99299.09;;;9.96;97.20
65716;BME280;63484;52.054;8.518;2023-04-01T17:50:24;99311.66;;;9.81;97.42
65716;BME280;63484;52.054;8.518;2023-04-01T17:55:40;99318.25;;;9.64;97.92
65716;BME280;63484;52.054;8.518;2023-04-01T18:01:10;99331.25;;;9.55;98.40
65716;BME280;63484;52.054;8.518;2023-04-01T18:06:18;99347.09;;;9.42;97.87
65716;BME280;63484;52.054;8.518;2023-04-01T18:11:31;99367.03;;;9.45;97.75
65716;BME280;63484;52.054;8.518;2023-04-01T18:16:44;99366.50;;;9.29;98.08
65716;BME280;63484;52.054;8.518;2023-04-01T18:21:53;99383.56;;;9.23;97.64
65716;BME280;63484;52.054;8.518;2023-04-01T18:27:02;99397.72;;;9.21;97.86
65716;BME280;63484;52.054;8.518;2023-04-01T18:32:24;99427.16;;;9.13;97.52
65716;BME280;63484;52.054;8.518;2023-04-01T18:37:31;99436.03;;;9.00;98.28
65716;BME280;63484;52.054;8.518;2023-04-01T18:42:43;99438.00;;;8.85;98.69
65716;BME280;63484;52.054;8.518;2023-04-01T18:47:57;99463.34;;;8.74;100.00
65716;BME280;63484;52.054;8.518;2023-04-01T18:53:23;99474.41;;;8.54;100.00
65716;BME280;63484;52.054;8.518;2023-04-01T18:58:32;99487.84;;;8.49;100.00
65716;BME280;63484;52.054;8.518;2023-04-01T19:03:41;99496.00;;;8.44;100.00
65716;BME280;63484;52.054;8.518;2023-04-01T19:08:46;99512.59;;;8.20;100.00
65716;BME280;63484;52.054;8.518;2023-04-01T19:13:55;99526.59;;;8.19;100.00
65716;BME280;63484;52.054;8.518;2023-04-01T19:19:16;99540.00;;;8.14;100.00
65716;BME280;63484;52.054;8.518;2023-04-01T19:30:13;99562.41;;;7.93;100.00
65716;BME280;63484;52.054;8.518;2023-04-01T19:35:26;99575.19;;;7.85;100.00
65716;BME280;63484;52.054;8.518;2023-04-01T19:40:47;99589.69;;;7.64;99.75
65716;BME280;63484;52.054;8.518;2023-04-01T19:45:57;99593.94;;;7.53;99.53
65716;BME280;63484;52.054;8.518;2023-04-01T19:51:07;99606.91;;;7.54;100.00
65716;BME280;63484;52.054;8.518;2023-04-01T19:56:16;99619.13;;;7.41;100.00
65716;BME280;63484;52.054;8.518;2023-04-01T20:01:23;99635.31;;;7.34;100.00
65716;BME280;63484;52.054;8.518;2023-04-01T20:06:32;99648.88;;;7.26;100.00
65716;BME280;63484;52.054;8.518;2023-04-01T20:11:47;99655.31;;;7.21;100.00
65716;BME280;63484;52.054;8.518;2023-04-01T20:17:13;99669.28;;;7.34;99.54
65716;BME280;63484;52.054;8.518;2023-04-01T20:22:25;99685.84;;;7.20;98.87
65716;BME280;63484;52.054;8.518;2023-04-01T20:27:37;99697.88;;;7.23;99.34
65716;BME280;63484;52.054;8.518;2023-04-01T20:32:54;99715.44;;;7.21;98.91
65716;BME280;63484;52.054;8.518;2023-04-01T20:38:14;99729.00;;;7.13;99.08
65716;BME280;63484;52.054;8.518;2023-04-01T20:49:23;99753.44;;;7.26;99.14
65716;BME280;63484;52.054;8.518;2023-04-01T20:54:43;99767.88;;;7.32;96.89
65716;BME280;63484;52.054;8.518;2023-04-01T21:10:54;99792.72;;;7.11;95.36
65716;BME280;63484;52.054;8.518;2023-04-01T21:16:08;99806.81;;;7.08;96.26
65716;BME280;63484;52.054;8.518;2023-04-01T21:21:26;99818.47;;;6.88;97.37
65716;BME280;63484;52.054;8.518;2023-04-01T21:26:42;99824.97;;;6.81;98.00
65716;BME280;63484;52.054;8.518;2023-04-01T21:31:57;99844.69;;;6.87;97.65
65716;BME280;63484;52.054;8.518;2023-04-01T21:37:15;99853.22;;;6.75;96.14
65716;BME280;63484;52.054;8.518;2023-04-01T21:42:30;99864.22;;;6.66;97.51
65716;BME280;63484;52.054;8.518;2023-04-01T21:48:04;99869.75;;;6.60;94.92
65716;BME280;63484;52.054;8.518;2023-04-01T21:53:43;99896.31;;;6.52;96.25
65716;BME280;63484;52.054;8.518;2023-04-01T22:04:45;99908.22;;;6.27;98.23
65716;BME280;63484;52.054;8.518;2023-04-01T22:09:59;99920.59;;;6.23;97.86
65716;BME280;63484;52.054;8.518;2023-04-01T22:15:13;99934.91;;;6.16;98.18
65716;BME280;63484;52.054;8.518;2023-04-01T22:20:21;99950.38;;;6.04;96.89
65716;BME280;63484;52.054;8.518;2023-04-01T22:25:34;99949.69;;;6.00;96.23
65716;BME280;63484;52.054;8.518;2023-04-01T22:30:41;99956.72;;;6.00;93.87
65716;BME280;63484;52.054;8.518;2023-04-01T22:35:51;99976.47;;;6.04;93.75
65716;BME280;63484;52.054;8.518;2023-04-01T22:41:02;99976.47;;;6.04;94.49
65716;BME280;63484;52.054;8.518;2023-04-01T22:46:23;99992.63;;;5.95;95.77
65716;BME280;63484;52.054;8.518;2023-04-01T22:51:39;100004.59;;;5.82;97.52
65716;BME280;63484;52.054;8.518;2023-04-01T22:56:46;100016.25;;;5.75;96.20
65716;BME280;63484;52.054;8.518;2023-04-01T23:01:53;100018.47;;;5.65;96.21
65716;BME280;63484;52.054;8.518;2023-04-01T23:07:00;100032.38;;;5.65;96.32
65716;BME280;63484;52.054;8.518;2023-04-01T23:12:07;100052.53;;;5.62;95.11
65716;BME280;63484;52.054;8.518;2023-04-01T23:17:29;100055.22;;;5.60;95.35
65716;BME280;63484;52.054;8.518;2023-04-01T23:22:37;100069.41;;;5.72;94.56
65716;BME280;63484;52.054;8.518;2023-04-01T23:27:47;100065.84;;;5.56;96.98
65716;BME280;63484;52.054;8.518;2023-04-01T23:32:52;100077.28;;;5.53;97.22
65716;BME280;63484;52.054;8.518;2023-04-01T23:37:53;100091.88;;;5.57;95.65
65716;BME280;63484;52.054;8.518;2023-04-01T23:42:57;100091.47;;;5.48;95.41
65716;BME280;63484;52.054;8.518;2023-04-01T23:48:00;100096.84;;;5.45;94.68
65716;BME280;63484;52.054;8.518;2023-04-01T23:53:03;100115.47;;;5.37;95.48
65716;BME280;63484;52.054;8.518;2023-04-01T23:58:11;100122.50;;;5.35;94.67
